Decoded Metar for KPHP (PHILIP in SD, USA) (IATA:PHP) | Meteo·Mobile Aviation Weather
aviador You're here:

KPHP Decoded Metar

PHILIP in SD, USA
Report Time2019-03-25 13:21:00
UTC Time2019-03-25 13:38:09
Flight Rules lifr LIFR
Wind090° at 08 kt
W.Decomp.*RWY 05: 7.0 kt HW 3.9 kt RCW
RWY 12: 6.0 kt HW 5.2 kt LCW
W.Rank090° ranks 9
Current wind is above 090° avg. (7.3)
Visibility3219 m
Phenomena:Mist
Clouds:Overcast 002 Hf
Ceiling200 ft
Temp-2°C (ISA -13)
Dew Point-2°C (100% RH)
AAT-7.1°C
QNH1026 hPa
Density Alt302 ft
Elevation2,205 ft
Report Wrong Elevation
Raw Report
KPHP 251321Z AUTO 09008KT 2SM BR OVC002 M02/M02 A3031=

Extra information for KPHP:More info

Metar Taf Metar & Taf Last 4 Metars F.Rules Stats Wind Profile Meteogram Temp Stats Airport Information Weather charts Add Link Nearby VenuesMetar ALERT Operation Metar Decoded Social comments

AIRNAV info for KPHP